Date,TemperatureHighF,TemperatureAvgF,TemperatureLowF,DewpointHighF,DewpointAvgF,DewpointLowF,HumidityHigh,HumidityAvg,HumidityLow,PressureMaxIn,PressureMinIn,WindSpeedMaxMPH,WindSpeedAvgMPH,GustSpeedMaxMPH,PrecipitationSumIn
2013-3-1,37,34,30,34,31,28,94,90,84,29.80,29.67,1,0,3,0.00
2013-3-2,44,35,31,36,30,28,93,81,63,29.80,29.73,3,1,8,0.00
2013-3-3,42,34,30,34,29,24,89,80,69,29.76,29.66,4,1,8,0.00
2013-3-4,37,31,28,26,23,21,78,73,62,29.85,29.64,5,2,14,0.00
2013-3-5,45,36,28,32,28,22,87,74,59,30.21,29.86,3,1,10,0.00
2013-3-6,35,33,31,31,30,26,92,87,83,30.34,30.21,2,1,8,0.00
2013-3-7,35,32,29,27,26,25,85,78,73,30.30,30.18,2,1,8,0.02
2013-3-8,46,37,31,28,26,23,79,66,40,30.31,30.13,4,1,10,0.00
2013-3-9,61,39,23,32,24,18,81,59,22,30.47,30.29,3,1,6,0.00
2013-3-10,51,38,26,30,26,20,79,63,42,30.51,30.37,3,1,8,0.00
2013-3-11,52,41,33,36,31,27,84,68,47,30.38,30.20,3,1,8,0.00
2013-3-12,43,40,38,41,37,32,95,88,74,30.21,29.82,3,1,7,0.00
2013-3-13,45,38,32,39,34,28,95,85,63,29.85,29.79,3,1,11,0.00
2013-3-14,37,29,19,28,20,6,86,69,53,29.85,29.72,4,2,11,0.00
2013-3-15,39,27,15,23,13,5,76,58,35,29.86,29.68,3,1,10,0.00
2013-3-16,36,29,24,21,15,12,78,58,42,29.98,29.74,4,2,10,0.00
2013-3-17,28,22,14,13,8,2,74,55,41,30.36,29.98,5,2,14,0.00
2013-3-18,39,24,8,15,8,0,71,51,30,30.49,30.31,2,1,6,0.00
2013-3-19,30,27,24,25,21,14,87,80,52,30.31,29.81,2,1,5,0.00
2013-3-20,37,28,20,25,21,16,87,75,54,29.81,29.70,5,1,15,0.05
2013-3-21,43,30,16,26,19,11,82,65,40,29.82,29.67,3,1,8,0.00
2013-3-22,39,30,19,24,18,13,78,63,44,29.75,29.68,4,1,11,0.00
2013-3-23,37,31,26,26,22,17,76,67,58,29.78,29.62,4,2,13,0.00
2013-3-24,48,37,29,28,25,22,77,63,44,29.89,29.77,5,2,12,0.00
2013-3-25,44,34,24,30,25,19,83,69,53,29.88,29.68,3,1,8,0.00
2013-3-26,49,39,30,27,25,22,75,59,38,29.85,29.68,3,1,8,0.00
2013-3-27,50,38,26,33,27,21,83,66,43,29.98,29.81,3,1,10,0.00
2013-3-28,47,39,34,36,31,29,88,74,55,30.08,29.98,2,1,10,0.00
2013-3-29,52,41,33,39,32,27,88,70,48,30.11,30.05,4,1,10,0.00
2013-3-30,54,41,32,37,26,20,86,59,29,30.18,30.09,4,1,10,0.00
2013-3-31,54,41,26,32,24,19,75,54,31,30.18,29.91,4,1,9,0.00